Time;durP1;ratioP1;P1;durP2;ratioP2;P2;SDS_P1;SDS_P2;PMS_P1;PMS_P2;Temp;Humidity;BMP_temperature;BMP_pressure;BME280_temperature;BME280_humidity;BME280_pressure;Samples;Min_cycle;Max_cycle;Signal;HPM_P1;HPM_P2
2023/09/02 00:01:42;;;;;;;7.35;3.03;;;;;;;12.06;100.00;101076.50;5031864;28;20407;-89
2023/09/02 00:04:17;;;;;;;5.82;2.92;;;;;;;12.03;100.00;101085.25;5044519;28;20431;-90
2023/09/02 00:06:45;;;;;;;6.97;2.80;;;;;;;12.03;100.00;101082.53;5033415;28;20403;-89
2023/09/02 00:09:15;;;;;;;7.03;2.92;;;;;;;12.00;100.00;101076.81;5045679;28;20411;-90
2023/09/02 00:11:43;;;;;;;7.15;3.00;;;;;;;11.90;100.00;101089.38;5033318;28;20415;-90
2023/09/02 00:14:17;;;;;;;7.35;3.10;;;;;;;11.90;100.00;101078.47;5049988;28;20403;-90
2023/09/02 00:16:46;;;;;;;6.07;2.65;;;;;;;11.85;100.00;101070.31;5031182;28;20418;-88
2023/09/02 00:19:14;;;;;;;6.13;2.80;;;;;;;11.81;100.00;101071.16;5032027;28;20438;-88
2023/09/02 00:21:42;;;;;;;6.70;2.97;;;;;;;11.84;100.00;101078.78;5021961;28;20434;-90
2023/09/02 00:24:15;;;;;;;7.85;2.90;;;;;;;11.79;100.00;101074.13;5033921;28;20423;-88
2023/09/02 00:26:43;;;;;;;6.65;3.08;;;;;;;11.78;100.00;101074.41;5042411;28;20460;-88
2023/09/02 00:29:12;;;;;;;7.43;3.00;;;;;;;11.78;100.00;101079.88;5048785;28;20430;-89
2023/09/02 00:31:42;;;;;;;6.95;3.20;;;;;;;11.79;100.00;101078.78;5023468;28;20419;-89
2023/09/02 00:34:10;;;;;;;6.90;2.97;;;;;;;11.78;100.00;101080.69;5023697;28;20779;-89
2023/09/02 00:36:38;;;;;;;7.03;3.60;;;;;;;11.79;100.00;101087.75;5031610;28;20415;-89
2023/09/02 00:39:11;;;;;;;6.83;3.60;;;;;;;11.72;100.00;101079.06;5022946;28;20419;-88
2023/09/02 00:41:46;;;;;;;6.20;3.40;;;;;;;11.67;100.00;101085.38;5031055;28;20411;-88
2023/09/02 00:44:15;;;;;;;9.50;3.65;;;;;;;11.61;100.00;101080.19;5031002;28;20430;-89
2023/09/02 00:46:45;;;;;;;7.43;3.65;;;;;;;11.60;100.00;101089.47;5031334;28;20411;-88
2023/09/02 00:49:19;;;;;;;8.13;3.83;;;;;;;11.57;100.00;101094.38;5031386;28;20430;-90
2023/09/02 00:51:47;;;;;;;7.57;3.80;;;;;;;11.54;100.00;101081.28;5024781;28;21200;-89
2023/09/02 00:54:21;;;;;;;8.15;3.92;;;;;;;11.55;100.00;101093.84;5047839;28;20414;-89
2023/09/02 00:56:49;;;;;;;9.85;4.10;;;;;;;11.55;100.00;101091.09;5031132;28;20425;-89
2023/09/02 00:59:17;;;;;;;9.90;4.20;;;;;;;11.48;100.00;101087.84;5047638;28;20772;-90
2023/09/02 01:01:47;;;;;;;7.82;4.25;;;;;;;11.42;100.00;101079.97;5041479;28;20426;-90
2023/09/02 01:04:21;;;;;;;9.80;4.45;;;;;;;11.43;100.00;101081.59;5035275;28;20934;-88
2023/09/02 01:06:50;;;;;;;9.02;4.45;;;;;;;11.50;100.00;101093.88;5031504;28;20431;-89
2023/09/02 01:09:24;;;;;;;9.60;4.68;;;;;;;11.43;100.00;101087.06;5032823;28;20430;-89
2023/09/02 01:11:58;;;;;;;8.70;4.90;;;;;;;11.36;100.00;101088.16;5029471;28;20422;-89
2023/09/02 01:14:26;;;;;;;8.98;4.90;;;;;;;11.41;100.00;101092.78;5029024;28;20431;-88
2023/09/02 01:16:56;;;;;;;10.20;4.80;;;;;;;11.32;100.00;101095.22;5031347;28;20415;-89
2023/09/02 01:19:24;;;;;;;9.75;4.60;;;;;;;11.27;100.00;101103.44;5030213;28;20434;-89
2023/09/02 01:22:08;;;;;;;9.68;4.82;;;;;;;11.26;100.00;101096.34;5027866;28;20439;-88
2023/09/02 01:25:09;;;;;;;10.03;4.67;;;;;;;11.25;100.00;101100.16;5046195;28;20423;-89
2023/09/02 01:27:49;;;;;;;12.40;4.70;;;;;;;11.31;100.00;101100.97;5031840;28;20423;-90
2023/09/02 01:30:22;;;;;;;10.90;5.13;;;;;;;11.29;100.00;101097.72;5030246;28;20495;-89
2023/09/02 01:32:53;;;;;;;9.00;4.60;;;;;;;11.23;100.00;101100.44;5029742;28;20436;-88
2023/09/02 01:35:25;;;;;;;9.95;4.65;;;;;;;11.22;100.00;101093.34;5029927;28;20803;-88
2023/09/02 01:37:59;;;;;;;8.77;4.57;;;;;;;11.26;100.00;101109.97;5027055;28;20423;-88
2023/09/02 01:40:34;;;;;;;8.55;4.55;;;;;;;11.22;100.00;101117.84;5047148;28;20419;-89
2023/09/02 01:43:05;;;;;;;9.43;4.65;;;;;;;11.16;100.00;101101.81;5030016;28;20449;-88
2023/09/02 01:45:36;;;;;;;8.77;4.40;;;;;;;11.14;100.00;101117.59;5046469;28;20422;-89
2023/09/02 01:48:06;;;;;;;10.93;4.77;;;;;;;11.10;100.00;101116.50;5036868;28;20422;-89
2023/09/02 01:50:37;;;;;;;7.57;4.40;;;;;;;11.08;100.00;101121.44;5030201;28;20894;-88
2023/09/02 01:53:06;;;;;;;10.02;4.70;;;;;;;11.16;100.00;101118.16;5030964;28;20423;-88
2023/09/02 01:55:40;;;;;;;8.82;4.68;;;;;;;11.15;100.00;101130.13;5018511;28;20414;-88
2023/09/02 01:58:11;;;;;;;9.77;4.80;;;;;;;11.10;100.00;101128.22;5029941;28;20419;-89
2023/09/02 02:00:42;;;;;;;10.73;5.00;;;;;;;11.02;100.00;101123.31;5046229;28;20767;-88
2023/09/02 02:03:18;;;;;;;10.15;5.45;;;;;;;11.06;100.00;101132.56;5039228;28;20441;-89
2023/09/02 02:05:53;;;;;;;10.95;5.50;;;;;;;11.06;100.00;101130.69;5042417;28;20937;-88
2023/09/02 02:08:31;;;;;;;9.75;5.47;;;;;;;11.02;100.00;101132.31;5027881;28;20419;-88
2023/09/02 02:11:03;;;;;;;11.93;5.80;;;;;;;11.04;100.00;101127.41;5039002;28;20428;-87
2023/09/02 02:13:35;;;;;;;12.73;6.43;;;;;;;11.00;100.00;101128.22;5035605;28;20506;-88
2023/09/02 02:16:04;;;;;;;12.50;6.28;;;;;;;10.91;100.00;101127.94;5028752;28;20411;-89
2023/09/02 02:18:34;;;;;;;12.75;6.35;;;;;;;10.95;100.00;101130.94;5028464;28;20427;-88
2023/09/02 02:21:08;;;;;;;12.57;6.55;;;;;;;10.93;100.00;101136.66;5042931;28;20420;-89
2023/09/02 02:23:39;;;;;;;12.48;6.75;;;;;;;10.93;100.00;101136.66;5029609;28;21014;-88
2023/09/02 02:26:10;;;;;;;10.77;6.30;;;;;;;10.87;100.00;101138.56;5022450;28;20438;-88
2023/09/02 02:28:49;;;;;;;12.88;6.00;;;;;;;10.83;100.00;101132.03;5045837;28;20411;-88
2023/09/02 02:31:21;;;;;;;11.85;6.53;;;;;;;10.82;100.00;101135.00;5038138;28;20439;-88
2023/09/02 02:33:53;;;;;;;10.15;6.22;;;;;;;10.81;100.00;101134.22;5029360;28;20415;-88
2023/09/02 02:36:29;;;;;;;12.90;6.82;;;;;;;10.83;100.00;101129.28;5029638;28;20415;-88
2023/09/02 02:39:15;;;;;;;12.60;6.47;;;;;;;10.89;100.00;101141.00;5029396;28;20434;-88
2023/09/02 02:41:55;;;;;;;12.05;6.43;;;;;;;10.85;100.00;101135.31;5027066;28;20947;-88
2023/09/02 02:44:36;;;;;;;12.93;6.93;;;;;;;10.84;100.00;101136.38;5023040;28;20418;-89
2023/09/02 02:47:09;;;;;;;14.43;6.83;;;;;;;10.84;100.00;101135.53;5020840;28;21143;-88
2023/09/02 02:49:38;;;;;;;13.73;6.95;;;;;;;10.84;100.00;101144.56;5030893;28;20410;-88
2023/09/02 02:52:07;;;;;;;12.38;6.80;;;;;;;10.84;100.00;101143.72;5044685;28;20427;-87
2023/09/02 02:54:38;;;;;;;15.63;7.32;;;;;;;10.83;100.00;101142.91;5029437;28;20768;-88
2023/09/02 02:57:07;;;;;;;13.85;7.05;;;;;;;10.85;100.00;101146.19;5045614;28;20423;-88
2023/09/02 02:59:37;;;;;;;16.23;7.50;;;;;;;10.93;100.00;101153.00;5032722;28;20415;-87
2023/09/02 03:02:05;;;;;;;13.35;7.07;;;;;;;10.90;100.00;101153.53;5031221;28;20414;-88
2023/09/02 03:04:34;;;;;;;15.45;8.02;;;;;;;10.97;100.00;101156.81;5029006;28;20774;-88
2023/09/02 03:07:07;;;;;;;16.00;7.97;;;;;;;10.99;100.00;101148.38;5046500;28;20426;-87
2023/09/02 03:09:36;;;;;;;13.73;7.72;;;;;;;11.02;100.00;101158.72;5034389;28;20411;-88
2023/09/02 03:12:04;;;;;;;14.23;7.55;;;;;;;10.97;100.00;101156.00;5049334;28;20410;-87
2023/09/02 03:14:35;;;;;;;13.70;7.28;;;;;;;11.00;100.00;101160.91;5035177;28;20430;-87
2023/09/02 03:17:09;;;;;;;13.80;7.60;;;;;;;10.99;100.00;101156.53;5032566;28;20495;-86
2023/09/02 03:19:38;;;;;;;15.10;7.28;;;;;;;11.01;100.00;101162.53;5041908;28;20447;-87
2023/09/02 03:22:12;;;;;;;14.45;7.70;;;;;;;10.98;100.00;101150.28;5032148;28;20422;-87
2023/09/02 03:24:42;;;;;;;13.48;8.05;;;;;;;11.04;100.00;101151.09;5027126;28;20419;-87
2023/09/02 03:27:15;;;;;;;14.97;8.17;;;;;;;11.02;100.00;101140.47;5032798;28;20492;-87
2023/09/02 03:29:44;;;;;;;14.20;8.40;;;;;;;11.06;100.00;101147.03;5032702;28;20423;-87
2023/09/02 03:32:13;;;;;;;15.00;8.65;;;;;;;11.03;100.00;101152.19;5040379;28;20422;-87
2023/09/02 03:34:46;;;;;;;19.10;8.93;;;;;;;11.00;100.00;101153.53;5043038;28;20426;-86
2023/09/02 03:37:19;;;;;;;15.50;8.55;;;;;;;10.98;100.00;101154.91;5040740;28;20411;-86
2023/09/02 03:39:54;;;;;;;19.73;9.60;;;;;;;11.01;100.00;101151.66;5041970;28;20430;-87
2023/09/02 03:42:27;;;;;;;22.65;9.82;;;;;;;10.97;100.00;101159.53;5032043;28;20407;-87
2023/09/02 03:45:00;;;;;;;17.88;9.75;;;;;;;10.95;100.00;101153.56;5036768;28;20438;-88
2023/09/02 03:47:32;;;;;;;18.92;9.93;;;;;;;10.92;100.00;101159.53;5030334;28;20446;-87
2023/09/02 03:50:03;;;;;;;19.45;10.52;;;;;;;10.86;100.00;101158.69;5031855;28;20422;-87
2023/09/02 03:52:31;;;;;;;22.23;11.23;;;;;;;10.80;100.00;101157.06;5032234;28;20767;-87
2023/09/02 03:55:05;;;;;;;20.75;12.30;;;;;;;10.84;100.00;101157.31;5031813;28;20434;-86
2023/09/02 03:57:34;;;;;;;24.98;12.90;;;;;;;10.88;100.00;101156.53;5031255;28;20423;-87
2023/09/02 04:00:05;;;;;;;25.15;13.85;;;;;;;10.91;100.00;101157.91;5029289;28;20436;-87
2023/09/02 04:02:44;;;;;;;26.20;13.20;;;;;;;10.93;100.00;101160.34;5038902;28;20413;-88
2023/09/02 04:05:15;;;;;;;26.08;13.82;;;;;;;10.92;100.00;101159.53;5028784;28;20496;-86
2023/09/02 04:07:48;;;;;;;27.63;13.98;;;;;;;11.01;100.00;101165.28;5031722;28;20415;-87
2023/09/02 04:10:21;;;;;;;30.88;14.63;;;;;;;10.98;100.00;101160.34;5030495;28;20423;-87
2023/09/02 04:12:49;;;;;;;29.45;14.60;;;;;;;10.98;100.00;101165.78;5030325;28;20431;-85
2023/09/02 04:15:18;;;;;;;25.40;13.88;;;;;;;11.00;100.00;101166.34;5031546;28;20419;-88
2023/09/02 04:17:48;;;;;;;27.08;14.23;;;;;;;10.95;100.00;101156.28;5028436;28;20427;-87
2023/09/02 04:20:16;;;;;;;31.05;15.52;;;;;;;10.92;100.00;101162.25;5031140;28;20765;-88
2023/09/02 04:22:44;;;;;;;29.90;15.63;;;;;;;10.95;100.00;101161.72;5031591;28;20423;-87
2023/09/02 04:25:19;;;;;;;31.08;15.48;;;;;;;10.96;100.00;101171.50;5027977;28;20540;-87
2023/09/02 04:27:48;;;;;;;31.58;15.90;;;;;;;10.97;100.00;101164.97;5046894;28;20431;-88
2023/09/02 04:30:24;;;;;;;32.35;15.82;;;;;;;10.93;100.00;101171.25;5030821;28;20411;-88
2023/09/02 04:32:58;;;;;;;28.27;15.23;;;;;;;10.96;100.00;101173.44;5028621;28;20420;-88
2023/09/02 04:35:28;;;;;;;34.60;15.55;;;;;;;10.93;100.00;101182.94;5047322;28;20423;-87
2023/09/02 04:37:56;;;;;;;32.42;14.60;;;;;;;10.94;100.00;101181.88;5030764;28;20415;-88
2023/09/02 04:40:26;;;;;;;31.92;15.18;;;;;;;11.03;100.00;101182.97;5032324;28;20421;-87
2023/09/02 04:42:59;;;;;;;30.58;14.70;;;;;;;11.01;100.00;101189.78;5031908;28;20417;-87
2023/09/02 04:45:28;;;;;;;28.98;14.20;;;;;;;11.05;100.00;101194.41;5026724;28;21151;-88
2023/09/02 04:47:56;;;;;;;30.73;14.70;;;;;;;11.02;100.00;101194.13;5031592;28;20423;-87
2023/09/02 04:50:27;;;;;;;29.98;14.13;;;;;;;11.09;100.00;101194.69;5030939;28;20458;-87
2023/09/02 04:53:03;;;;;;;29.67;13.77;;;;;;;11.08;100.00;101205.88;5029899;28;20418;-88
2023/09/02 04:55:39;;;;;;;28.60;13.95;;;;;;;11.05;100.00;101199.06;5032442;28;20415;-87
2023/09/02 04:58:15;;;;;;;27.10;13.45;;;;;;;11.08;100.00;101197.69;5048640;28;20888;-86
2023/09/02 05:00:45;;;;;;;27.57;12.67;;;;;;;11.12;100.00;101204.25;5029664;28;20426;-89
2023/09/02 05:03:14;;;;;;;28.20;12.97;;;;;;;11.14;100.00;101207.50;5039366;28;20534;-86
2023/09/02 05:05:44;;;;;;;28.60;12.75;;;;;;;11.22;100.00;101210.50;5037600;28;20442;-87
2023/09/02 05:08:19;;;;;;;28.33;12.13;;;;;;;11.34;100.00;101215.69;5036895;28;20775;-88
2023/09/02 05:10:47;;;;;;;27.13;12.32;;;;;;;11.58;100.00;101218.66;5036791;28;21059;-89
2023/09/02 05:13:22;;;;;;;23.25;12.05;;;;;;;11.70;100.00;101226.59;5036191;28;20422;-88
2023/09/02 05:15:56;;;;;;;22.60;10.88;;;;;;;11.71;100.00;101227.38;5034774;28;20769;-88
2023/09/02 05:18:25;;;;;;;20.13;10.43;;;;;;;11.73;100.00;101228.75;5044038;28;20423;-88
2023/09/02 05:20:57;;;;;;;23.50;10.87;;;;;;;11.81;100.00;101223.84;5029399;28;20421;-89
2023/09/02 05:23:26;;;;;;;20.43;10.37;;;;;;;11.85;100.00;101233.13;5050683;28;20423;-88
2023/09/02 05:25:56;;;;;;;25.00;11.55;;;;;;;11.89;100.00;101226.84;5050141;28;20415;-89
2023/09/02 05:28:26;;;;;;;24.10;11.85;;;;;;;12.04;100.00;101231.47;5032246;28;20426;-87
2023/09/02 05:30:57;;;;;;;22.75;10.95;;;;;;;12.01;100.00;101237.47;5032611;28;20411;-86
2023/09/02 05:33:25;;;;;;;26.75;11.75;;;;;;;12.00;100.00;101229.56;5033864;28;20415;-88
2023/09/02 05:35:55;;;;;;;24.40;11.35;;;;;;;12.06;100.00;101228.47;5032289;28;20418;-85
2023/09/02 05:38:29;;;;;;;27.67;12.18;;;;;;;12.10;100.00;101231.44;5030012;28;20898;-86
2023/09/02 05:40:58;;;;;;;23.35;11.55;;;;;;;12.20;100.00;101237.69;5031084;28;20419;-85
2023/09/02 05:43:31;;;;;;;25.02;11.43;;;;;;;12.21;100.00;101235.81;5045288;28;20422;-85
2023/09/02 05:46:01;;;;;;;26.27;12.07;;;;;;;12.31;100.00;101234.97;5029759;28;20419;-85
2023/09/02 05:48:30;;;;;;;24.73;11.48;;;;;;;12.42;100.00;101240.09;5028156;28;20791;-86
2023/09/02 05:50:58;;;;;;;25.40;12.37;;;;;;;12.46;100.00;101243.09;5028935;28;20445;-85
2023/09/02 05:53:26;;;;;;;22.65;11.27;;;;;;;12.59;100.00;101239.78;5046050;28;20799;-86
2023/09/02 05:55:56;;;;;;;26.92;11.52;;;;;;;12.61;100.00;101249.56;5031032;28;20434;-86
2023/09/02 05:58:30;;;;;;;23.73;10.98;;;;;;;12.61;100.00;101249.56;5029019;28;20431;-85
2023/09/02 06:01:03;;;;;;;21.92;10.57;;;;;;;12.73;100.00;101247.34;5029611;28;20426;-85
2023/09/02 06:03:36;;;;;;;21.77;10.82;;;;;;;12.87;100.00;101258.47;5027656;28;20790;-86
2023/09/02 06:06:09;;;;;;;20.60;10.20;;;;;;;12.92;100.00;101259.25;5026643;28;20422;-86
2023/09/02 06:08:38;;;;;;;19.98;9.65;;;;;;;12.99;100.00;101258.94;5030081;28;20445;-86
2023/09/02 06:11:07;;;;;;;21.63;9.85;;;;;;;12.99;100.00;101260.88;5028164;28;20775;-86
2023/09/02 06:13:41;;;;;;;20.85;9.50;;;;;;;13.00;100.00;101266.06;5026600;28;20429;-86
2023/09/02 06:16:09;;;;;;;18.88;9.85;;;;;;;13.10;100.00;101265.19;5030032;28;20418;-86
2023/09/02 06:18:42;;;;;;;19.65;10.23;;;;;;;13.18;100.00;101271.97;5030427;28;20419;-86
2023/09/02 06:21:15;;;;;;;20.20;10.00;;;;;;;13.28;100.00;101280.09;5024803;28;20435;-85
2023/09/02 06:23:49;;;;;;;21.47;9.73;;;;;;;13.32;100.00;101270.22;5026301;28;20419;-87
2023/09/02 06:26:19;;;;;;;19.98;9.55;;;;;;;13.46;100.00;101272.34;5030534;28;20426;-88
2023/09/02 06:28:52;;;;;;;22.35;10.20;;;;;;;13.45;100.00;101274.28;5022219;28;20431;-86
2023/09/02 06:31:20;;;;;;;21.67;9.82;;;;;;;13.52;100.00;101282.16;5029637;28;20411;-87
2023/09/02 06:33:48;;;;;;;18.63;9.27;;;;;;;13.61;100.00;101280.44;5028572;28;20784;-86
2023/09/02 06:36:19;;;;;;;18.33;8.85;;;;;;;13.62;100.00;101276.63;5026853;28;20430;-86
2023/09/02 06:38:47;;;;;;;18.50;9.10;;;;;;;13.74;100.00;101282.53;5024660;28;20423;-86
2023/09/02 06:41:21;;;;;;;19.77;9.00;;;;;;;13.74;100.00;101279.78;5028273;28;20419;-85
2023/09/02 06:43:55;;;;;;;17.35;8.98;;;;;;;13.84;100.00;101281.63;5030669;28;20918;-86
2023/09/02 06:46:23;;;;;;;17.70;9.07;;;;;;;13.87;100.00;101291.97;5036948;28;20434;-85
2023/09/02 06:48:53;;;;;;;19.85;9.80;;;;;;;13.86;100.00;101295.00;5027383;28;20414;-87
2023/09/02 06:51:26;;;;;;;17.80;9.45;;;;;;;13.93;100.00;101301.78;5026448;28;20430;-85
2023/09/02 06:53:59;;;;;;;19.48;9.23;;;;;;;14.05;100.00;101295.13;5027893;28;20418;-87
2023/09/02 06:56:29;;;;;;;19.40;9.27;;;;;;;14.06;100.00;101294.03;5028793;28;20883;-85
2023/09/02 06:58:57;;;;;;;19.30;9.25;;;;;;;14.11;100.00;101302.16;5030103;28;20787;-87
2023/09/02 07:01:26;;;;;;;18.73;8.93;;;;;;;14.22;100.00;101295.47;5021809;28;20435;-86
2023/09/02 07:03:59;;;;;;;18.00;8.65;;;;;;;14.34;100.00;101291.56;5030787;28;20413;-86
2023/09/02 07:06:33;;;;;;;17.58;9.30;;;;;;;14.31;100.00;101295.69;5042127;28;20426;-85
2023/09/02 07:09:02;;;;;;;16.38;8.77;;;;;;;14.34;100.00;101307.97;5030017;28;20419;-86
2023/09/02 07:11:37;;;;;;;18.77;9.20;;;;;;;14.50;100.00;101306.72;5028012;28;20435;-86
2023/09/02 07:14:10;;;;;;;18.23;9.23;;;;;;;14.65;100.00;101310.41;5028127;28;20414;-86
2023/09/02 07:16:43;;;;;;;18.83;9.10;;;;;;;14.55;100.00;101312.09;5030439;28;20422;-86
2023/09/02 07:19:16;;;;;;;16.77;8.98;;;;;;;14.58;100.00;101314.28;5023655;28;20431;-87
2023/09/02 07:21:45;;;;;;;16.42;8.75;;;;;;;14.70;100.00;101321.31;5045643;28;20435;-86
2023/09/02 07:24:18;;;;;;;16.33;9.15;;;;;;;14.72;100.00;101319.91;5029805;28;20426;-86
2023/09/02 07:26:47;;;;;;;18.58;8.60;;;;;;;14.97;100.00;101331.66;5027333;28;20438;-86
2023/09/02 07:29:16;;;;;;;16.35;8.50;;;;;;;14.83;100.00;101336.22;5026683;28;20459;-86
2023/09/02 07:31:49;;;;;;;14.43;7.63;;;;;;;14.88;100.00;101347.94;5028812;28;20913;-86
2023/09/02 07:34:17;;;;;;;15.02;8.02;;;;;;;14.92;100.00;101340.75;5026931;28;20446;-85
2023/09/02 07:36:45;;;;;;;13.95;7.82;;;;;;;14.98;100.00;101352.47;5038835;28;20926;-87
2023/09/02 07:39:19;;;;;;;14.13;7.28;;;;;;;15.04;100.00;101348.56;5025929;28;20439;-86
2023/09/02 07:41:50;;;;;;;13.85;7.70;;;;;;;15.29;100.00;101346.59;5026832;28;20508;-85
2023/09/02 07:44:18;;;;;;;14.25;8.30;;;;;;;15.29;100.00;101352.09;5027042;28;20432;-85
2023/09/02 07:46:46;;;;;;;13.73;7.90;;;;;;;15.32;100.00;101356.97;5031658;28;20418;-86
2023/09/02 07:49:14;;;;;;;13.25;7.63;;;;;;;15.45;100.00;101361.72;5031110;28;20486;-85
2023/09/02 07:51:44;;;;;;;13.50;7.78;;;;;;;15.51;100.00;101359.72;5034704;28;20415;-86
2023/09/02 07:54:17;;;;;;;13.47;7.77;;;;;;;15.47;100.00;101362.22;5031551;28;20729;-86
2023/09/02 07:56:45;;;;;;;14.20;8.32;;;;;;;15.52;100.00;101366.81;5030860;28;20411;-86
2023/09/02 07:59:15;;;;;;;12.35;7.95;;;;;;;15.53;100.00;101373.94;5029746;28;20411;-85
2023/09/02 08:01:43;;;;;;;11.20;6.30;;;;;;;15.60;100.00;101368.91;5029250;28;20415;-85
2023/09/02 08:04:11;;;;;;;10.02;5.72;;;;;;;15.52;100.00;101385.22;5028629;28;20435;-85
2023/09/02 08:06:42;;;;;;;9.70;5.43;;;;;;;15.65;100.00;101373.50;5022523;28;20430;-86
2023/09/02 08:09:15;;;;;;;10.65;5.85;;;;;;;15.77;100.00;101379.38;5008478;28;20434;-86
2023/09/02 08:11:43;;;;;;;9.55;5.93;;;;;;;15.77;100.00;101389.50;5005174;28;20431;-87
2023/09/02 08:14:11;;;;;;;11.13;5.97;;;;;;;16.06;100.00;101389.38;5018090;28;20446;-86
2023/09/02 08:16:41;;;;;;;12.23;6.70;;;;;;;16.14;100.00;101383.19;5002007;28;20526;-85
2023/09/02 08:19:09;;;;;;;10.00;5.72;;;;;;;15.89;100.00;101387.16;5004886;28;20922;-85
2023/09/02 08:21:37;;;;;;;12.63;6.13;;;;;;;15.73;100.00;101392.03;5008243;28;20422;-86
2023/09/02 08:24:10;;;;;;;11.80;6.25;;;;;;;15.80;100.00;101402.69;5008954;28;20439;-87
2023/09/02 08:26:43;;;;;;;10.43;6.30;;;;;;;16.00;100.00;101398.00;5006227;28;20457;-86
2023/09/02 08:29:17;;;;;;;10.32;5.75;;;;;;;16.03;100.00;101394.63;5010874;28;20450;-86
2023/09/02 08:31:46;;;;;;;8.35;4.57;;;;;;;16.07;100.00;101401.97;5008520;28;20427;-84
2023/09/02 08:34:14;;;;;;;7.25;3.83;;;;;;;15.99;100.00;101394.41;5026688;28;20415;-85
2023/09/02 08:36:42;;;;;;;9.18;3.90;;;;;;;16.06;100.00;101405.00;5006552;28;20426;-86
2023/09/02 08:39:11;;;;;;;7.10;3.55;;;;;;;16.02;100.00;101402.06;5004074;28;20421;-86
2023/09/02 08:41:41;;;;;;;6.97;3.40;;;;;;;16.08;100.00;101400.84;5011444;28;20427;-86
2023/09/02 08:44:17;;;;;;;7.28;3.85;;;;;;;16.17;100.00;101403.72;5010861;28;20435;-86
2023/09/02 08:46:47;;;;;;;7.13;3.50;;;;;;;16.42;100.00;101402.50;5002166;28;20445;-87
2023/09/02 08:49:21;;;;;;;7.70;4.15;;;;;;;16.33;100.00;101402.34;5005407;28;21833;-86
2023/09/02 08:51:49;;;;;;;7.05;3.58;;;;;;;16.41;100.00;101398.09;5014680;28;20502;-86
2023/09/02 08:54:23;;;;;;;5.90;3.20;;;;;;;16.56;100.00;101401.69;5007525;28;20442;-86
2023/09/02 08:56:57;;;;;;;9.52;4.45;;;;;;;16.37;100.00;101401.78;5006586;28;20905;-87
2023/09/02 08:59:31;;;;;;;7.70;3.63;;;;;;;16.44;100.00;101403.00;5007008;28;21012;-86
2023/09/02 09:02:06;;;;;;;7.10;3.33;;;;;;;16.40;100.00;101401.97;5006997;28;20544;-86
2023/09/02 09:04:40;;;;;;;7.13;3.03;;;;;;;16.45;100.00;101409.31;5002393;28;20428;-86
2023/09/02 09:07:10;;;;;;;6.63;2.47;;;;;;;16.42;100.00;101407.16;5003799;28;20439;-86
2023/09/02 09:09:44;;;;;;;5.93;3.03;;;;;;;16.35;100.00;101410.31;5005588;28;20426;-87
2023/09/02 09:12:13;;;;;;;7.43;3.20;;;;;;;16.57;100.00;101414.31;5006461;28;20423;-86
2023/09/02 09:14:51;;;;;;;7.18;3.00;;;;;;;16.48;100.00;101401.28;5007291;28;20431;-86
2023/09/02 09:17:21;;;;;;;7.28;3.80;;;;;;;16.63;100.00;101413.94;4996293;28;20419;-86
2023/09/02 09:19:54;;;;;;;6.85;2.90;;;;;;;16.98;100.00;101410.81;5003515;28;20587;-85
2023/09/02 09:22:28;;;;;;;6.68;3.45;;;;;;;17.07;100.00;101409.00;5002579;28;20435;-87
2023/09/02 09:25:01;;;;;;;6.15;3.38;;;;;;;16.74;100.00;101402.75;5005019;28;20423;-86
2023/09/02 09:27:35;;;;;;;7.10;3.53;;;;;;;16.94;100.00;101402.38;5018845;28;20887;-86
2023/09/02 09:30:26;;;;;;;7.30;3.20;;;;;;;16.74;100.00;101400.00;5005853;28;20870;-86
2023/09/02 09:33:00;;;;;;;7.13;3.80;;;;;;;16.95;100.00;101401.25;5006751;28;20426;-86
2023/09/02 09:35:34;;;;;;;6.53;3.25;;;;;;;17.07;100.00;101392.50;5009503;28;21673;-86
2023/09/02 09:38:04;;;;;;;6.00;3.08;;;;;;;17.07;100.00;101398.00;5001743;28;20411;-85
2023/09/02 09:40:38;;;;;;;6.35;2.90;;;;;;;16.96;100.00;101397.38;5000467;28;20426;-85
2023/09/02 09:43:16;;;;;;;5.82;2.95;;;;;;;17.09;100.00;101408.69;5001217;28;21089;-85
2023/09/02 09:45:54;;;;;;;4.13;2.22;;;;;;;17.12;100.00;101408.06;5023147;28;20422;-86
2023/09/02 09:48:24;;;;;;;4.60;2.30;;;;;;;17.14;100.00;101414.09;5024896;28;20420;-86
2023/09/02 09:50:52;;;;;;;6.22;2.20;;;;;;;17.17;100.00;101405.22;5023230;28;20966;-86
2023/09/02 09:53:20;;;;;;;4.37;2.30;;;;;;;17.27;100.00;101412.44;5009315;28;20446;-87
2023/09/02 09:55:54;;;;;;;5.25;2.30;;;;;;;17.44;100.00;101417.31;5002373;28;20423;-86
2023/09/02 09:58:25;;;;;;;5.43;2.45;;;;;;;17.45;100.00;101416.19;5004728;28;20426;-86
2023/09/02 10:00:58;;;;;;;5.50;2.70;;;;;;;17.31;100.00;101417.00;5025175;28;20431;-87
2023/09/02 10:03:33;;;;;;;5.60;2.53;;;;;;;17.27;100.00;101415.19;4978310;28;20445;-87
2023/09/02 10:06:06;;;;;;;5.13;2.55;;;;;;;17.22;100.00;101427.13;5004718;28;20791;-87
2023/09/02 10:08:50;;;;;;;4.85;2.30;;;;;;;17.26;100.00;101427.31;4999961;28;20687;-87
2023/09/02 10:11:24;;;;;;;4.30;2.30;;;;;;;17.36;100.00;101421.63;5009406;28;20423;-86
2023/09/02 10:13:58;;;;;;;4.13;2.00;;;;;;;17.26;100.00;101422.66;5003884;28;21081;-87
2023/09/02 10:16:30;;;;;;;4.85;2.35;;;;;;;17.34;100.00;101432.09;5001450;28;20427;-88
2023/09/02 10:19:03;;;;;;;5.72;2.17;;;;;;;17.58;100.00;101433.78;5009553;28;20430;-88
2023/09/02 10:21:35;;;;;;;5.07;2.17;;;;;;;17.59;100.00;101440.94;5007802;28;20427;-89
2023/09/02 10:24:06;;;;;;;5.33;2.10;;;;;;;17.48;100.00;101441.16;5011944;28;20938;-87
2023/09/02 10:26:38;;;;;;;4.25;2.00;;;;;;;17.56;100.00;101439.59;5002973;28;20430;-88
2023/09/02 10:29:09;;;;;;;6.17;2.10;;;;;;;17.60;100.00;101431.56;5020849;28;20427;-89
2023/09/02 10:31:40;;;;;;;5.93;2.35;;;;;;;17.80;100.00;101441.28;5022125;28;20439;-88
2023/09/02 10:34:16;;;;;;;4.43;2.22;;;;;;;17.81;100.00;101440.97;5003530;28;20419;-87
2023/09/02 10:36:56;;;;;;;4.50;2.08;;;;;;;17.94;100.00;101450.34;5007443;28;20442;-88
2023/09/02 10:39:35;;;;;;;4.73;2.10;;;;;;;17.93;100.00;101445.16;5003211;28;20445;-90
2023/09/02 10:42:06;;;;;;;5.20;2.10;;;;;;;18.16;100.00;101445.97;5016657;28;20450;-88
2023/09/02 10:44:34;;;;;;;3.58;2.03;;;;;;;18.17;100.00;101453.94;5001856;28;20435;-89
2023/09/02 10:47:04;;;;;;;5.68;2.10;;;;;;;18.01;100.00;101442.47;5008484;28;20537;-89
2023/09/02 10:49:36;;;;;;;5.25;2.00;;;;;;;17.92;100.00;101446.28;5007325;28;20431;-88
2023/09/02 10:52:05;;;;;;;4.20;2.13;;;;;;;17.84;100.00;101448.63;5004434;28;20787;-88
2023/09/02 10:55:03;;;;;;;4.70;2.00;;;;;;;18.01;100.00;101453.50;5002486;28;21111;-90
2023/09/02 10:57:32;;;;;;;4.32;2.00;;;;;;;18.15;100.00;101450.69;5003154;28;20490;-90
2023/09/02 11:00:13;;;;;;;3.35;2.00;;;;;;;18.53;100.00;101444.78;5005633;28;20415;-87
2023/09/02 11:02:47;;;;;;;3.80;2.00;;;;;;;18.62;100.00;101450.34;4979550;28;21153;-87
2023/09/02 11:05:17;;;;;;;4.70;2.05;;;;;;;18.52;100.00;101448.66;5007816;28;20423;-89
2023/09/02 11:07:46;;;;;;;5.20;2.33;;;;;;;18.73;100.00;101447.31;5008298;28;20431;-88
2023/09/02 11:10:14;;;;;;;3.75;1.95;;;;;;;18.52;100.00;101448.66;5006808;28;20442;-87
2023/09/02 11:13:08;;;;;;;4.50;2.10;;;;;;;18.28;100.00;101454.50;5009651;28;20434;-88
2023/09/02 11:15:37;;;;;;;4.50;1.90;;;;;;;18.23;100.00;101449.13;5006069;28;22368;-88
2023/09/02 11:18:32;;;;;;;3.67;1.90;;;;;;;18.12;100.00;101448.56;5004475;28;20548;-88
2023/09/02 11:21:01;;;;;;;4.00;1.80;;;;;;;17.88;100.00;101445.25;5008881;28;20427;-88
2023/09/02 11:23:35;;;;;;;4.63;1.77;;;;;;;17.90;100.00;101451.25;5006160;28;21154;-88
2023/09/02 11:26:05;;;;;;;3.38;1.90;;;;;;;18.23;100.00;101449.13;5006746;28;20454;-87
2023/09/02 11:28:38;;;;;;;6.22;1.60;;;;;;;18.57;100.00;101450.47;5020438;28;20442;-89
2023/09/02 11:31:13;;;;;;;2.50;1.50;;;;;;;18.59;100.00;101453.72;5025865;28;21082;-89
2023/09/02 11:33:47;;;;;;;8.77;1.70;;;;;;;18.78;100.00;101463.72;5026499;28;20427;-88